createdAt,value
2018-06-04T00:00:10.893Z,14.97
2018-06-04T00:02:41.830Z,15.50
2018-06-04T00:05:11.131Z,13.50
2018-06-04T00:07:40.362Z,12.77
2018-06-04T00:10:10.525Z,13.90
2018-06-04T00:12:40.625Z,14.83
2018-06-04T00:15:10.585Z,13.27
2018-06-04T00:17:39.632Z,13.50
2018-06-04T00:20:08.762Z,15.40
2018-06-04T00:22:37.856Z,14.47
2018-06-04T00:25:09.020Z,15.43
2018-06-04T00:27:38.766Z,14.37
2018-06-04T00:30:09.376Z,14.23
2018-06-04T00:32:38.061Z,14.60
2018-06-04T00:35:09.113Z,14.10
2018-06-04T00:37:40.663Z,13.50
2018-06-04T00:40:12.614Z,14.43
2018-06-04T00:42:42.281Z,14.20
2018-06-04T00:45:11.744Z,14.10
2018-06-04T00:47:41.366Z,14.10
2018-06-04T00:50:10.558Z,14.60
2018-06-04T00:52:40.950Z,13.80
2018-06-04T00:55:13.247Z,14.77
2018-06-04T00:57:43.130Z,14.50
2018-06-04T01:00:12.811Z,14.63
2018-06-04T01:02:41.429Z,14.83
2018-06-04T01:05:11.482Z,14.00
2018-06-04T01:07:44.128Z,15.00
2018-06-04T01:10:15.321Z,13.43
2018-06-04T01:12:45.096Z,14.70
2018-06-04T01:15:17.152Z,14.10
2018-06-04T01:17:46.763Z,14.73
2018-06-04T01:20:15.891Z,18.17
2018-06-04T01:22:45.354Z,15.47
2018-06-04T01:25:17.258Z,14.10
2018-06-04T01:27:47.966Z,13.77
2018-06-04T01:30:19.871Z,15.20
2018-06-04T01:32:50.976Z,15.83
2018-06-04T01:35:21.512Z,14.33
2018-06-04T01:37:51.227Z,16.37
2018-06-04T01:40:20.623Z,14.53
2018-06-04T01:42:50.347Z,13.73
2018-06-04T01:45:19.007Z,14.73
2018-06-04T01:47:50.795Z,15.23
2018-06-04T01:50:20.940Z,13.70
2018-06-04T01:52:50.998Z,14.70
2018-06-04T01:55:19.657Z,13.60
2018-06-04T01:57:53.661Z,12.60
2018-06-04T02:00:24.935Z,14.70
2018-06-04T02:02:54.795Z,14.67
2018-06-04T02:05:28.180Z,14.87
2018-06-04T02:07:58.679Z,14.70
2018-06-04T02:10:28.195Z,14.47
2018-06-04T02:12:57.659Z,15.83
2018-06-04T02:15:29.019Z,16.07
2018-06-04T02:17:58.038Z,17.50
2018-06-04T02:20:28.135Z,18.13
2018-06-04T02:22:56.788Z,18.80
2018-06-04T02:25:27.014Z,20.03
2018-06-04T02:27:57.494Z,17.50
2018-06-04T02:30:27.200Z,17.10
2018-06-04T02:32:56.683Z,15.60
2018-06-04T02:35:30.124Z,15.50
2018-06-04T02:37:59.503Z,14.77
2018-06-04T02:40:34.743Z,15.20
2018-06-04T02:43:04.430Z,15.80
2018-06-04T02:45:33.717Z,17.27
2018-06-04T02:48:04.695Z,14.97
2018-06-04T02:50:33.310Z,16.03
2018-06-04T02:53:03.654Z,14.70
2018-06-04T02:55:33.752Z,14.97
2018-06-04T02:58:05.484Z,14.87
2018-06-04T03:00:37.648Z,14.30
2018-06-04T03:03:06.810Z,14.93
2018-06-04T03:05:36.798Z,15.53
2018-06-04T03:08:06.202Z,15.33
2018-06-04T03:10:37.719Z,14.30
2018-06-04T03:13:06.353Z,14.13
2018-06-04T03:15:37.567Z,15.17
2018-06-04T03:18:10.038Z,15.57
2018-06-04T03:20:38.660Z,15.33
2018-06-04T03:23:08.485Z,14.23
2018-06-04T03:25:39.982Z,14.63
2018-06-04T03:28:10.539Z,14.90
2018-06-04T03:30:41.785Z,13.47
2018-06-04T03:33:12.412Z,15.47
2018-06-04T03:35:41.479Z,15.03
2018-06-04T03:38:10.205Z,16.40
2018-06-04T03:40:39.561Z,15.47
2018-06-04T03:43:08.922Z,15.48
2018-06-04T03:45:43.289Z,16.30
2018-06-04T03:48:11.918Z,16.00
2018-06-04T03:50:41.281Z,16.97
2018-06-04T03:53:10.525Z,17.10
2018-06-04T03:55:41.032Z,17.40
2018-06-04T03:58:11.027Z,17.40
2018-06-04T04:00:39.631Z,16.77
2018-06-04T04:03:08.245Z,14.97
2018-06-04T04:05:36.828Z,19.17
2018-06-04T04:08:05.947Z,17.30
2018-06-04T04:10:34.551Z,17.90
2018-06-04T04:13:03.206Z,16.57
2018-06-04T04:15:31.821Z,17.13
2018-06-04T04:18:01.752Z,13.70
2018-06-04T04:20:30.637Z,16.23
2018-06-04T04:22:59.253Z,15.47
2018-06-04T04:25:27.917Z,16.23
2018-06-04T04:27:56.603Z,17.90
2018-06-04T04:30:25.251Z,17.43
2018-06-04T04:32:55.262Z,14.60
2018-06-04T04:35:23.918Z,15.33
2018-06-04T04:37:52.588Z,16.13
2018-06-04T04:40:21.199Z,14.07
2018-06-04T04:42:51.097Z,14.03
2018-06-04T04:45:19.745Z,15.00
2018-06-04T04:47:48.391Z,14.43
2018-06-04T04:50:20.789Z,13.53
2018-06-04T04:52:50.038Z,15.20
2018-06-04T04:55:20.017Z,13.80
2018-06-04T04:57:48.665Z,14.10
2018-06-04T05:00:17.257Z,15.83
2018-06-04T05:02:46.740Z,13.80
2018-06-04T05:05:15.328Z,14.90
2018-06-04T05:07:43.956Z,15.20
2018-06-04T05:10:12.644Z,13.77
2018-06-04T05:12:41.901Z,14.30
2018-06-04T05:15:11.738Z,13.33
2018-06-04T05:17:40.395Z,12.67
2018-06-04T05:20:09.056Z,13.60
2018-06-04T05:22:39.026Z,14.53
2018-06-04T05:25:07.617Z,14.17
2018-06-04T05:27:36.261Z,13.57
2018-06-04T05:30:04.864Z,14.23
2018-06-04T05:32:33.469Z,13.80
2018-06-04T05:35:02.979Z,12.63
2018-06-04T05:37:31.613Z,12.70
2018-06-04T05:40:00.217Z,13.37
2018-06-04T05:42:28.850Z,13.90
2018-06-04T05:44:58.318Z,13.40
2018-06-04T05:47:26.923Z,14.10
2018-06-04T05:49:58.137Z,14.90
2018-06-04T05:52:34.156Z,13.33
2018-06-04T05:55:03.558Z,15.90
2018-06-04T05:57:32.175Z,14.17
2018-06-04T06:00:00.806Z,14.23
2018-06-04T06:02:30.243Z,15.37
2018-06-04T06:04:58.896Z,15.20
2018-06-04T06:07:28.183Z,15.10
2018-06-04T06:09:56.814Z,15.40
2018-06-04T06:12:28.883Z,16.30
2018-06-04T06:14:59.229Z,16.60
2018-06-04T06:17:29.994Z,16.00
2018-06-04T06:19:59.467Z,16.37
2018-06-04T06:22:28.098Z,17.07
2018-06-04T06:24:56.770Z,16.70
2018-06-04T06:27:26.462Z,14.93
2018-06-04T06:29:56.933Z,15.57
2018-06-04T06:32:25.628Z,16.80
2018-06-04T06:34:54.283Z,18.27
2018-06-04T06:37:24.472Z,18.17
2018-06-04T06:39:53.078Z,18.30
2018-06-04T06:42:21.738Z,19.70
2018-06-04T06:44:50.416Z,20.47
2018-06-04T06:47:20.080Z,22.40
2018-06-04T06:49:50.093Z,22.20
2018-06-04T06:52:19.867Z,21.10
2018-06-04T06:54:48.496Z,22.63
2018-06-04T06:57:17.104Z,30.50
2018-06-04T06:59:45.786Z,31.07
2018-06-04T07:02:14.984Z,34.17
2018-06-04T07:04:43.664Z,32.30
2018-06-04T07:07:12.266Z,32.43
2018-06-04T07:09:42.314Z,33.20
2018-06-04T07:12:10.931Z,35.67
2018-06-04T07:14:40.243Z,34.30
2018-06-04T07:17:10.377Z,35.00
2018-06-04T07:19:38.997Z,34.93
2018-06-04T07:22:09.003Z,31.70
2018-06-04T07:24:38.145Z,33.90
2018-06-04T07:27:09.513Z,33.70
2018-06-04T07:29:39.368Z,33.57
2018-06-04T07:32:08.741Z,31.40
2018-06-04T07:34:39.713Z,30.20
2018-06-04T07:37:10.222Z,30.83
2018-06-04T07:39:38.851Z,29.23
2018-06-04T07:42:08.518Z,29.17
2018-06-04T07:44:38.052Z,30.40
2018-06-04T07:47:11.203Z,28.03
2018-06-04T07:49:39.821Z,27.67
2018-06-04T07:52:10.501Z,26.50
2018-06-04T07:54:40.424Z,25.53
2018-06-04T07:57:09.000Z,25.00
2018-06-04T07:59:39.652Z,25.67
2018-06-04T08:02:08.936Z,28.50
2018-06-04T08:04:37.568Z,27.37
2018-06-04T08:07:06.177Z,25.43
2018-06-04T08:09:37.418Z,26.23
2018-06-04T08:12:06.870Z,25.03
2018-06-04T08:14:36.145Z,25.07
2018-06-04T08:17:05.256Z,25.30
2018-06-04T08:19:34.864Z,25.40
2018-06-04T08:22:03.928Z,24.70
2018-06-04T08:24:34.364Z,24.70
2018-06-04T08:27:04.675Z,26.67
2018-06-04T08:29:33.676Z,24.90
2018-06-04T08:32:03.469Z,25.87
2018-06-04T08:34:35.109Z,23.63
2018-06-04T08:37:04.253Z,23.27
2018-06-04T08:39:33.280Z,24.93
2018-06-04T08:42:05.055Z,24.13
2018-06-04T08:44:36.102Z,25.20
2018-06-04T08:47:06.789Z,22.00
2018-06-04T08:49:35.521Z,21.83
2018-06-04T08:52:04.755Z,21.00
2018-06-04T08:54:33.401Z,21.80
2018-06-04T08:57:02.149Z,20.10
2018-06-04T08:59:31.685Z,20.10
2018-06-04T09:02:01.532Z,21.50
2018-06-04T09:04:31.896Z,20.10
2018-06-04T09:07:02.299Z,17.50
2018-06-04T09:09:33.299Z,19.63
2018-06-04T09:12:04.477Z,20.10
2018-06-04T09:14:33.123Z,18.37
2018-06-04T09:17:02.896Z,17.13
2018-06-04T09:19:31.506Z,16.63
2018-06-04T09:22:00.131Z,15.83
2018-06-04T09:24:28.756Z,14.77
2018-06-04T09:26:58.019Z,14.40
2018-06-04T09:29:26.614Z,15.37
2018-06-04T09:31:55.659Z,17.10
2018-06-04T09:34:24.369Z,16.03
2018-06-04T09:36:55.606Z,12.97
2018-06-04T09:39:25.560Z,13.90
2018-06-04T09:41:54.198Z,15.00
2018-06-04T09:44:26.262Z,13.80
2018-06-04T09:46:55.994Z,14.10
2018-06-04T09:49:25.254Z,13.63
2018-06-04T09:51:53.888Z,13.80
2018-06-04T09:54:24.939Z,13.73
2018-06-04T09:56:54.920Z,11.77
2018-06-04T09:59:23.888Z,11.37
2018-06-04T10:01:53.389Z,13.50
2018-06-04T10:04:23.247Z,13.50
2018-06-04T10:06:55.435Z,14.37
2018-06-04T10:09:24.450Z,13.77
2018-06-04T10:11:53.510Z,15.20
2018-06-04T10:14:23.480Z,14.90
2018-06-04T10:16:55.453Z,16.00
2018-06-04T10:19:24.418Z,14.40
2018-06-04T10:21:53.462Z,15.23
2018-06-04T10:24:22.667Z,14.97
2018-06-04T10:26:53.261Z,13.97
2018-06-04T10:29:25.088Z,12.57
2018-06-04T10:31:55.727Z,12.77
2018-06-04T10:34:25.817Z,12.70
2018-06-04T10:36:55.737Z,13.80
2018-06-04T10:39:26.949Z,13.67
2018-06-04T10:41:57.487Z,14.63
2018-06-04T10:44:28.563Z,13.97
2018-06-04T10:46:58.814Z,15.40
2018-06-04T10:49:30.179Z,14.90
2018-06-04T10:52:02.055Z,14.00
2018-06-04T10:54:32.460Z,13.73
2018-06-04T10:57:03.623Z,12.97
2018-06-04T10:59:34.147Z,14.07
2018-06-04T11:02:05.198Z,15.17
2018-06-04T11:04:34.923Z,13.57
2018-06-04T11:07:04.022Z,16.57
2018-06-04T11:09:35.478Z,18.63
2018-06-04T11:12:05.353Z,18.03
2018-06-04T11:14:35.108Z,18.03
2018-06-04T11:17:04.556Z,18.57
2018-06-04T11:19:34.171Z,16.40
2018-06-04T11:22:03.697Z,13.77
2018-06-04T11:24:32.330Z,11.47
2018-06-04T11:27:02.213Z,14.77
2018-06-04T11:29:31.231Z,13.23
2018-06-04T11:31:59.868Z,14.47
2018-06-04T11:34:28.475Z,15.70
2018-06-04T11:36:59.506Z,16.50
2018-06-04T11:39:28.556Z,17.80
2018-06-04T11:41:57.194Z,15.70
2018-06-04T11:44:26.305Z,15.50
2018-06-04T11:46:56.195Z,16.93
2018-06-04T11:49:24.800Z,16.80
2018-06-04T11:51:54.045Z,16.37
2018-06-04T11:54:22.729Z,18.00
2018-06-04T11:56:51.399Z,17.40
2018-06-04T11:59:20.059Z,16.80
2018-06-04T12:01:49.495Z,16.47
2018-06-04T12:04:19.110Z,14.27
2018-06-04T12:06:47.757Z,14.53
2018-06-04T12:09:34.374Z,13.73
2018-06-04T12:12:03.674Z,15.40
2018-06-04T12:14:33.488Z,15.93
2018-06-04T12:17:02.088Z,13.83
2018-06-04T12:19:31.584Z,13.30
2018-06-04T12:22:00.249Z,13.70
2018-06-04T12:24:29.626Z,15.77
2018-06-04T12:26:58.341Z,15.80
2018-06-04T12:29:28.067Z,14.80
2018-06-04T12:31:57.330Z,14.70
2018-06-04T12:34:26.273Z,16.20
2018-06-04T12:36:55.755Z,17.00
2018-06-04T12:39:26.093Z,15.43
2018-06-04T12:41:54.784Z,14.60
2018-06-04T12:44:24.937Z,12.67
2018-06-04T12:46:54.164Z,12.90
2018-06-04T12:49:22.829Z,14.40
2018-06-04T12:51:53.015Z,14.80
2018-06-04T12:54:21.646Z,14.10
2018-06-04T12:56:50.693Z,13.83
2018-06-04T12:59:19.353Z,12.60
2018-06-04T13:01:48.751Z,14.40
2018-06-04T13:04:19.209Z,13.03
2018-06-04T13:06:49.341Z,12.00
2018-06-04T13:09:18.222Z,13.27
2018-06-04T13:11:47.815Z,13.53
2018-06-04T13:14:16.469Z,13.93
2018-06-04T13:16:45.159Z,14.10
2018-06-04T13:19:13.819Z,15.67
2018-06-04T13:21:42.443Z,12.30
2018-06-04T13:24:11.138Z,13.30
2018-06-04T13:26:39.781Z,13.97
2018-06-04T13:29:08.408Z,14.70
2018-06-04T13:31:37.034Z,15.93
2018-06-04T13:34:05.880Z,15.30
2018-06-04T13:36:34.598Z,15.50
2018-06-04T13:39:06.252Z,15.47
2018-06-04T13:41:34.899Z,15.47
2018-06-04T13:44:03.556Z,14.13
2018-06-04T13:46:33.228Z,15.07
2018-06-04T13:49:01.896Z,15.97
2018-06-04T13:51:30.580Z,17.30
2018-06-04T13:53:59.223Z,16.00
2018-06-04T13:56:27.836Z,17.43
2018-06-04T13:58:56.484Z,17.00
2018-06-04T14:01:25.090Z,15.73
2018-06-04T14:03:54.508Z,17.33
2018-06-04T14:06:23.560Z,15.70
2018-06-04T14:08:52.666Z,17.00
2018-06-04T14:11:21.417Z,16.27
2018-06-04T14:13:50.036Z,15.50
2018-06-04T14:16:18.708Z,15.50
2018-06-04T14:18:47.392Z,16.63
2018-06-04T14:21:18.602Z,16.37
2018-06-04T14:23:47.268Z,16.33
2018-06-04T14:26:15.897Z,16.00
2018-06-04T14:28:45.188Z,15.67
2018-06-04T14:31:14.082Z,15.63
2018-06-04T14:33:42.872Z,15.13
2018-06-04T14:36:12.056Z,15.80
2018-06-04T14:38:40.718Z,15.30
2018-06-04T14:41:10.638Z,16.00
2018-06-04T14:43:40.917Z,16.17
2018-06-04T14:46:09.679Z,16.07
2018-06-04T14:48:38.336Z,17.00
2018-06-04T14:51:06.967Z,18.97
2018-06-04T14:53:37.268Z,15.97
2018-06-04T14:56:05.943Z,15.77
2018-06-04T14:58:34.615Z,17.07
2018-06-04T15:01:07.076Z,16.20
2018-06-04T15:03:35.717Z,17.00
2018-06-04T15:06:04.779Z,17.67
2018-06-04T15:08:33.457Z,16.07
2018-06-04T15:11:02.091Z,16.47
2018-06-04T15:13:31.690Z,15.60
2018-06-04T15:16:02.334Z,16.50
2018-06-04T15:18:31.583Z,16.00
2018-06-04T15:21:00.383Z,16.87
2018-06-04T15:23:29.118Z,17.10
2018-06-04T15:25:57.981Z,18.50
2018-06-04T15:28:26.730Z,17.00
2018-06-04T15:30:55.752Z,15.83
2018-06-04T15:33:27.394Z,17.20
2018-06-04T15:35:56.304Z,17.97
2018-06-04T15:38:25.228Z,17.50
2018-06-04T15:40:53.880Z,18.63
2018-06-04T15:43:22.759Z,17.00
2018-06-04T15:45:51.474Z,16.13
2018-06-04T15:48:20.579Z,16.80
2018-06-04T15:50:49.899Z,14.80
2018-06-04T15:53:19.158Z,16.70
2018-06-04T15:55:48.629Z,16.50
2018-06-04T15:58:17.324Z,16.60
2018-06-04T16:00:45.986Z,17.17
2018-06-04T16:03:16.063Z,16.77
2018-06-04T16:05:45.267Z,16.30
2018-06-04T16:08:15.364Z,18.07
2018-06-04T16:10:44.280Z,16.93
2018-06-04T16:13:13.447Z,17.80
2018-06-04T16:15:42.822Z,18.27
2018-06-04T16:18:12.811Z,15.33
2018-06-04T16:20:42.542Z,15.30
2018-06-04T16:23:11.388Z,17.47
2018-06-04T16:25:40.125Z,15.70
2018-06-04T16:28:09.253Z,14.90
2018-06-04T16:30:37.968Z,17.10
2018-06-04T16:33:06.715Z,17.83
2018-06-04T16:35:35.360Z,16.00
2018-06-04T16:38:04.032Z,15.73
2018-06-04T16:40:32.686Z,16.70
2018-06-04T16:43:02.127Z,17.10
2018-06-04T16:45:32.013Z,17.30
2018-06-04T16:48:00.762Z,17.50
2018-06-04T16:50:31.113Z,15.93
2018-06-04T16:52:59.817Z,17.20
2018-06-04T16:55:30.906Z,17.90
2018-06-04T16:58:02.077Z,17.93
2018-06-04T17:00:32.038Z,17.73
2018-06-04T17:03:01.166Z,17.43
2018-06-04T17:05:31.096Z,16.77
2018-06-04T17:08:00.479Z,17.57
2018-06-04T17:10:30.411Z,18.40
2018-06-04T17:12:59.938Z,18.20
2018-06-04T17:15:28.582Z,15.80
2018-06-04T17:17:58.527Z,18.87
2018-06-04T17:20:28.716Z,15.57
2018-06-04T17:22:58.326Z,17.90
2018-06-04T17:25:27.444Z,18.50
2018-06-04T17:27:57.947Z,18.13
2018-06-04T17:30:27.687Z,18.57
2018-06-04T17:32:57.191Z,18.87
2018-06-04T17:35:27.310Z,18.70
2018-06-04T17:37:56.417Z,17.97
2018-06-04T17:40:25.074Z,18.43
2018-06-04T17:42:53.736Z,18.43
2018-06-04T17:45:23.123Z,17.17
2018-06-04T17:47:53.924Z,17.40
2018-06-04T17:50:23.274Z,19.10
2018-06-04T17:52:51.927Z,16.93
2018-06-04T17:55:20.589Z,17.50
2018-06-04T17:57:50.255Z,19.90
2018-06-04T18:00:21.235Z,18.33
2018-06-04T18:02:51.790Z,19.00
2018-06-04T18:05:20.420Z,18.20
2018-06-04T18:07:49.517Z,18.03
2018-06-04T18:10:18.189Z,18.90
2018-06-04T18:12:46.931Z,16.87
2018-06-04T18:15:16.549Z,16.63
2018-06-04T18:17:46.394Z,17.03
2018-06-04T18:20:15.748Z,17.37
2018-06-04T18:22:47.745Z,17.47
2018-06-04T18:25:17.985Z,18.53
2018-06-04T18:27:46.725Z,19.37
2018-06-04T18:30:15.333Z,20.50
2018-06-04T18:32:44.867Z,20.77
2018-06-04T18:35:14.015Z,18.63
2018-06-04T18:37:43.254Z,19.37
2018-06-04T18:40:12.696Z,18.70
2018-06-04T18:42:41.411Z,20.50
2018-06-04T18:45:11.531Z,19.27
2018-06-04T18:47:45.627Z,20.90
2018-06-04T18:50:14.854Z,20.67
2018-06-04T18:52:43.921Z,19.83
2018-06-04T18:55:12.536Z,19.73
2018-06-04T18:57:41.321Z,19.53
2018-06-04T19:00:12.506Z,20.00
2018-06-04T19:02:42.532Z,20.30
2018-06-04T19:05:13.231Z,19.67
2018-06-04T19:07:41.912Z,19.63
2018-06-04T19:10:11.268Z,21.07
2018-06-04T19:12:46.487Z,19.93
2018-06-04T19:15:16.498Z,19.97
2018-06-04T19:17:46.590Z,20.47
2018-06-04T19:20:17.049Z,19.57
2018-06-04T19:22:46.807Z,20.13
2018-06-04T19:25:19.770Z,21.40
2018-06-04T19:27:50.161Z,20.60
2018-06-04T19:30:18.906Z,20.97
2018-06-04T19:32:47.674Z,20.47
2018-06-04T19:35:18.396Z,21.00
2018-06-04T19:37:48.605Z,20.33
2018-06-04T19:40:17.340Z,21.97
2018-06-04T19:42:47.024Z,19.93
2018-06-04T19:45:16.809Z,21.57
2018-06-04T19:47:45.478Z,20.90
2018-06-04T19:50:14.132Z,19.57
2018-06-04T19:52:44.043Z,21.30
2018-06-04T19:55:14.646Z,20.50
2018-06-04T19:57:45.816Z,19.50
2018-06-04T20:00:15.540Z,20.63
2018-06-04T20:02:48.175Z,18.80
2018-06-04T20:05:16.791Z,20.70
2018-06-04T20:07:47.269Z,20.10
2018-06-04T20:10:17.556Z,19.77
2018-06-04T20:12:46.920Z,19.93
2018-06-04T20:15:18.672Z,18.70
2018-06-04T20:17:48.324Z,18.37
2018-06-04T20:20:17.909Z,19.80
2018-06-04T20:22:48.772Z,19.63
2018-06-04T20:25:18.286Z,18.03
2018-06-04T20:27:46.975Z,19.47
2018-06-04T20:30:16.480Z,19.87
2018-06-04T20:32:45.388Z,20.20
2018-06-04T20:35:14.720Z,19.00
2018-06-04T20:37:43.415Z,20.30
2018-06-04T20:40:16.293Z,20.00
2018-06-04T20:42:46.634Z,20.17
2018-06-04T20:45:17.108Z,19.70
2018-06-04T20:47:46.301Z,20.50
2018-06-04T20:50:15.914Z,19.53
2018-06-04T20:52:45.385Z,20.60
2018-06-04T20:55:18.899Z,19.43
2018-06-04T20:57:51.183Z,19.77
2018-06-04T21:00:21.800Z,21.13
2018-06-04T21:02:53.978Z,20.80
2018-06-04T21:05:23.326Z,20.33
2018-06-04T21:07:53.090Z,20.70
2018-06-04T21:10:22.167Z,21.60
2018-06-04T21:12:52.047Z,19.33
2018-06-04T21:15:21.870Z,20.33
2018-06-04T21:17:52.484Z,21.97
2018-06-04T21:20:21.217Z,20.90
2018-06-04T21:22:51.516Z,22.80
2018-06-04T21:25:22.066Z,21.43
2018-06-04T21:27:50.763Z,21.60
2018-06-04T21:30:22.379Z,21.50
2018-06-04T21:32:51.891Z,21.43
2018-06-04T21:35:21.481Z,20.40
2018-06-04T21:37:51.028Z,21.90
2018-06-04T21:40:21.915Z,22.60
2018-06-04T21:42:51.779Z,21.53
2018-06-04T21:45:21.916Z,22.00
2018-06-04T21:47:51.222Z,22.27
2018-06-04T21:50:20.558Z,22.30
2018-06-04T21:52:49.534Z,22.43
2018-06-04T21:55:18.342Z,23.17
2018-06-04T21:57:47.658Z,24.27
2018-06-04T22:00:18.357Z,24.30
2018-06-04T22:02:47.410Z,23.30
2018-06-04T22:05:16.527Z,22.13
2018-06-04T22:07:48.055Z,24.83
2018-06-04T22:10:18.389Z,25.47
2018-06-04T22:12:50.754Z,25.10
2018-06-04T22:15:21.292Z,25.23
2018-06-04T22:17:51.831Z,25.50
2018-06-04T22:20:21.558Z,26.03
2018-06-04T22:22:51.731Z,26.40
2018-06-04T22:25:21.522Z,26.80
2018-06-04T22:27:52.197Z,26.57
2018-06-04T22:30:25.305Z,25.40
2018-06-04T22:32:55.008Z,25.57
2018-06-04T22:35:23.660Z,26.03
2018-06-04T22:37:54.135Z,25.97
2018-06-04T22:40:23.540Z,27.30
2018-06-04T22:42:52.319Z,26.10
2018-06-04T22:45:22.898Z,25.77
2018-06-04T22:47:52.739Z,26.10
2018-06-04T22:50:22.363Z,25.83
2018-06-04T22:52:52.158Z,27.60
2018-06-04T22:55:22.914Z,28.30
2018-06-04T22:57:51.576Z,32.20
2018-06-04T23:00:40.020Z,28.10
2018-06-04T23:03:11.153Z,26.70
2018-06-04T23:05:41.104Z,27.87
2018-06-04T23:08:09.800Z,27.87
2018-06-04T23:10:39.395Z,28.47
2018-06-04T23:13:08.112Z,21.90
2018-06-04T23:15:40.031Z,28.80
2018-06-04T23:18:09.583Z,29.97
2018-06-04T23:20:38.213Z,27.87
2018-06-04T23:23:07.303Z,29.47
2018-06-04T23:25:35.951Z,29.93
2018-06-04T23:28:07.194Z,30.80
2018-06-04T23:30:38.633Z,30.70
2018-06-04T23:33:07.742Z,30.53
2018-06-04T23:35:37.434Z,29.70
2018-06-04T23:38:07.461Z,30.47
2018-06-04T23:40:37.764Z,33.10
2018-06-04T23:43:07.577Z,29.77
2018-06-04T23:45:37.382Z,30.20
2018-06-04T23:48:07.618Z,30.70
2018-06-04T23:50:37.228Z,31.40
2018-06-04T23:53:06.328Z,29.77
2018-06-04T23:55:35.873Z,32.90
2018-06-04T23:58:06.156Z,30.60
